Accueil
METAR-TAF:

METAR-TAF

Aéroports :

Lanvéoc, France

Base aérienne Lanvéoc-Poulmic

latitude: 48-17N, longitude: 004-26W, altitude: 87 m

Observation

Le bulletin a été fait il y a 22 minutes, à 08:30 UTC
Vent 6 kt de ouest, variant entre ouest/sud-ouest et ouest/nord-ouest
Température 15°C
Humidité 82%
Pression 1025 hPa
Visibilité 10 km ou plus
Nuages fragmentés à une hauteur de 1000 ft
Ciel couvert à une hauteur de 1800 ft

METAR: LFRL 230830Z AUTO 26006KT 240V300 9999 BKN010 OVC018 15/12 Q1025 BECMG OVC018

Heure: 10:52 (08:52 UTC)

Prévision

Le bulletin a été fait il y a 52 minutes, à 08:00 UTC
Prévision valable du 23 à 09 UTC au 23 à 18 UTC
Vent 5 kt de sud-ouest
Visibilité 10 km ou plus
Ciel couvert à une hauteur de 1800 ft

TAF: LFRL 230800Z 2309/2318 23005KT 9999 OVC018

Observations et prévisions météorologiques de plus de 4000 aéroports (messages METAR et TAF).

Les stations disponibles sont représentées par des disques jaunes et rouges sur la carte.

Passer la souris dessus pour voir le nom de la station.

Cliquer dessus pour voir les observations et prévisions météorologiques.

Pour changer de carte: cliquez sur les boutons verts avec une croix noire pour zoomer, sur le bouton vert avec un tiret pour effectuer un zoom arrière, ou sur les flèches vertes pour les cartes adjacentes.


METAR-TAF: